Anzoras — EAZC — position and weather

sailwx.info

Track history (hours):
 
Tides and Currents Weather Stations Pressure Air Temp Water Temp Dewpoint Dewpoint Depression Visibility Wind Speed Wind Dir Waves Ship Positions

Anzoras

Last reported at 2016-May-24 04:14 UTC. Time now 2016-May-24 17:41 UTC.
Position N 37°01' E 013°08'.

Length 100 m; draft 4.3 m.

Type: Cargo ship. MMSI: 224376000.

Date/timePositionNaut miles runAvg speedWind from/ knotsBaromVisibWave heightAir tempDewpointWater temp
2016-May-24 04:14N 37°01' E 013°08'710.3
2016-May-24 03:34N 37°00' E 013°17'1010.4
2016-May-24 02:34N 36°59' E 013°30'1010.2
2016-May-24 01:33N 36°57' E 013°43'1010.2
2016-May-24 00:33N 36°53' E 013°54'10 9.8
2016-May-23 23:33N 36°49' E 014°05'10 9.7
2016-May-23 22:32N 36°44' E 014°17'12 9.9
2016-May-23 21:21N 36°40' E 014°30'810.3
2016-May-23 20:33N 36°36' E 014°39'1310.3
2016-May-23 19:15N 36°31' E 014°55'7 9.9
2016-May-23 18:33N 36°29' E 015°03'1110.0
2016-May-23 17:24N 36°29' E 015°17'44610.0
2016-May-21 20:33N 37°42' E 024°29'276 9.9
2016-May-20 16:33N 40°52' E 028°48'1110.2
2016-May-20 15:30N 40°59' E 028°59'  
Track history (hours):
 
Tides and Currents Weather Stations Pressure Air Temp Water Temp Dewpoint Dewpoint Depression Visibility Wind Speed Wind Dir Waves Ship Positions

Anzoras

Last reported at 2016-May-24 04:14 UTC. Time now 2016-May-24 17:41 UTC.
Position N 37°01' E 013°08'.

Length 100 m; draft 4.3 m.

Type: Cargo ship. MMSI: 224376000.

Date/timePositionNaut miles runAvg speedWind from/ knotsBaromVisibWave heightAir tempDewpointWater temp
2016-May-24 04:14N 37°01' E 013°08'710.3
2016-May-24 03:34N 37°00' E 013°17'1010.4
2016-May-24 02:34N 36°59' E 013°30'1010.2
2016-May-24 01:33N 36°57' E 013°43'1010.2
2016-May-24 00:33N 36°53' E 013°54'10 9.8
2016-May-23 23:33N 36°49' E 014°05'10 9.7
2016-May-23 22:32N 36°44' E 014°17'12 9.9
2016-May-23 21:21N 36°40' E 014°30'810.3
2016-May-23 20:33N 36°36' E 014°39'1310.3
2016-May-23 19:15N 36°31' E 014°55'7 9.9
2016-May-23 18:33N 36°29' E 015°03'1110.0
2016-May-23 17:24N 36°29' E 015°17'44610.0
2016-May-21 20:33N 37°42' E 024°29'276 9.9
2016-May-20 16:33N 40°52' E 028°48'1110.2
2016-May-20 15:30N 40°59' E 028°59'  

Dump ship's entire track history